AirNav   Everest Fuels
 
 366 users online  

W91 Smith Mountain Lake Airport
Moneta, Virginia, USA

GOING TO MONETA?


FAA INFORMATION EFFECTIVE 03 NOVEMBER 2022

Location

FAA Identifier: W91
Lat/Long: 37-06-27.8000N 079-35-32.9000W
37-06.463333N 079-35.548333W
37.1077222,-79.5924722
(estimated)
Elevation: 892.2 ft. / 271.9 m (surveyed)
Variation: 09W (2010)
From city: 4 miles SE of MONETA, VA
Time zone: UTC -5 (UTC -4 during Daylight Saving Time)
Zip code: 24121

Airport Operations

Airport use: Open to the public
Activation date: 03/1962
Control tower: no
ARTCC: WASHINGTON CENTER
FSS: LEESBURG FLIGHT SERVICE STATION
NOTAMs facility: DCA (NOTAM-D service available)
Attendance: CONTINUOUS
Wind indicator: yes
Segmented circle: no
Beacon: white-green (lighted land airport)
Operates sunset to sunrise.

Airport Communications

CTAF/UNICOM: 122.975
ROANOKE APPROACH: 135.0
ROANOKE DEPARTURE: 135.0
IC: 135.0

Nearby radio navigation aids

VOR radial/distance  VOR name  Freq  Var
LYHr248/19.2LYNCHBURG VOR/DME109.2005W
ODRr133/(22.6)WOODRUM VOR114.9008W
ROAr126/26.9ROANOKE VOR/DME109.4004W
DANr345/(34.6)DANVILLE VOR113.1006W
SBVr318/38.0SOUTH BOSTON VORTAC110.4005W

 
NDB name  Hdg/Dist  Freq  Var  ID
VINTON121/15.027708WVIT ...- .. -
TECH107/39.236808WTEC - . -.-.

Airport Services

Fuel available: 100LL
100LL:24-HR SELF-SERVE FUEL AVAILABLE WITH CREDIT CARD.
Parking: tiedowns
Airframe service: MAJOR
Powerplant service: MAJOR
Bottled oxygen: NONE
Bulk oxygen: NONE

Runway Information

Runway 5/23

Dimensions: 3058 x 50 ft. / 932 x 15 m
Surface: asphalt, in fair condition
Runway edge lights: medium intensity
RUNWAY 5  RUNWAY 23
Latitude: 37-06.285267N37-06.641983N
Longitude: 079-35.770783W079-35.326567W
Elevation: 854.7 ft.892.0 ft.
Traffic pattern: leftleft
Runway heading: 054 magnetic, 045 true234 magnetic, 225 true
Displaced threshold: 250 ft.no
Markings: basic, in good conditionnonprecision, in good condition
Runway end identifier lights: noyes
REIL OTS INDEFLY.
Touchdown point: yes, no lightsyes, no lights
Obstructions: 46 ft. trees, 382 ft. from runway, 93 ft. right of centerline, 3:1 slope to clear
RY 05 HAS +12 FT ROAD AT THLD 100 FT R. PWR POLE 128 FT RIGHT OF APCH 86 FT FM THLD.
15 ft. tree, 238 ft. from runway, 122 ft. left of centerline, 2:1 slope to clear

Airport Ownership and Management from official FAA records

Ownership: Privately-owned
Owner: SMITH MOUNTAIN LAKE AIRPORT, LLC.
1090 CUTLASS RD
MONETA, VA 24121
Phone 540-297-4859
Manager: MOE BAZAZAN
1090 CUTLASS RD
MONETA, VA 24121
Phone 540-297-4859

Airport Operational Statistics

Aircraft based on the field: 29
Single engine airplanes: 28
Multi engine airplanes: 1
    
Aircraft operations: avg 99/week *
76% local general aviation
24% transient general aviation
<1% air taxi
<1% military
* for 12-month period ending 31 December 2019

Additional Remarks

DEER ON & INVOF ARPT.
ROA TWR SVCS AVBL AT 540-563-1307.
LNDG FEE FOR ALL ACFT OVR 5500 LBS PUBLISHED MAX GW.
CLSD TO TRANSIENT PRACTICE LANDINGS. CLSD TO TRANSIENT ACFT PERFORMING TGL AND PLA.

Instrument Procedures

NOTE: All procedures below are presented as PDF files. If you need a reader for these files, you should download the free Adobe Reader.

NOT FOR NAVIGATION. Please procure official charts for flight.
FAA instrument procedures published for use from 03 November 2022 at 0901Z to 01 December 2022 at 0900Z.

 
IAPs - Instrument Approach Procedures
RNAV (GPS) RWY 23   download (201KB)
NOTE: Special Take-Off Minimums/Departure Procedures apply   download

Other nearby airports with instrument procedures:

W90 - New London Airport (16 nm NE)
KROA - Roanoke-Blacksburg Regional Airport/Woodrum Field (22 nm NW)
KLYH - Lynchburg Regional Airport/Preston Glenn Field (23 nm NE)
0V4 - Brookneal/Campbell County Airport (28 nm E)
W24 - Falwell Airport (28 nm NE)
 
Loc | Ops | Rwys | IFR | FBO | Links
Com | Nav | Svcs | Stats | Notes
Area around W91 (Smith Mountain Lake Airport)
 
Road maps at: MapQuest Bing Google
 
Aerial photo
WARNING: Photo may not be current or correct
Aerial photo of W91 (Smith Mountain Lake Airport)
Photo by Moe
Photo taken 23-May-2015
looking west.

Do you have a better or more recent aerial photo of Smith Mountain Lake Airport that you would like to share? If so, please send us your photo.

 
Sectional chart

 
Airport distance calculator
Flying to Smith Mountain Lake Airport? Find the distance to fly.

From to W91

Sunrise and sunset
Times for 28-Nov-2022
 Local
(UTC-5)
 Zulu
(UTC)
Morning civil twilight06:4311:43
Sunrise07:1112:11
Sunset17:0122:01
Evening civil twilight17:3022:30

Current date and time
Zulu (UTC)  28-Nov-2022 08:31:37
Local (UTC-5)  28-Nov-2022 03:31:37
 
METAR
KROA 
22nm NW 
280754Z 28010KT 10SM BKN050 BKN060 13/03 A2972 RMK AO2 SLP059 T01330033 $
KLYH 
23nm NE 
280754Z AUTO VRB06KT 10SM OVC050 14/05 A2968 RMK AO2 SLP047 T01390050
K0V4 
28nm E 
280815Z AUTO 18013KT 10SM BKN055 10/06 A2969 RMK AO1
KDAN 
35nm S 
280753Z AUTO 25011KT 10SM CLR 12/05 A2973 RMK AO2 SLP059 T01170050
KMTV 
36nm SW 
280815Z AUTO 26007KT 220V290 10SM OVC049 12/02 A2977 RMK AO2 T01210022
KBCB 
40nm W 
280815Z AUTO 28008G15KT 240V310 10SM BKN034 OVC041 10/04 A2977 RMK AO2 T01030042
KSIF 
42nm S 
280815Z AUTO 23003KT 10SM OVC055 10/07 A2975 RMK AO2 T00980072
KW78 
43nm SE 
280815Z AUTO 26009G15KT 10SM CLR 12/05 A2971 RMK AO1 T01230045
TAF
KROA 
22nm NW 
280540Z 2806/2906 23007KT P6SM BKN060 FM280800 29014G21KT P6SM BKN040 FM281800 29014G20KT P6SM SCT050 FM282100 30010KT P6SM SKC
KLYH 
23nm NE 
280540Z 2806/2906 21007KT P6SM SKC FM280700 27005KT P6SM SCT060 FM281800 31005KT P6SM SCT250
NOTAMs
Click for the latest NOTAMs
NOTAMs are issued by the DoD/FAA and will open in a separate window not controlled by AirNav.

 

 
 

FBO, Fuel Providers, and Aircraft Ground Support

  
 Business Name 
 
 Contact 
 
 Services / Description 
 
Fuel Prices
 
Comments
  
Smith Mountain Lake Airport 540-297-4859
no information available

If you are affiliated with Smith Mountain Lake Airport and would like to show here your services, contact info, web link, logo, and more, click here
100LL
SS $5.94 
 Updated 21-Nov-2022
 
   2 read write
SS=Self service
Update Fuel Prices
 

Would you like to see your business listed on this page?

 If your business provides an interesting product or service to pilots, flight crews, aircraft, or users of the Smith Mountain Lake Airport, you should consider listing it here.  To start the listing process, click on the button below
 
Add a business
 

Other Pages about Smith Mountain Lake Airport

smlairport.com
 
Update a link
 
Copyright © AirNav, LLC. All rights reserved. Privacy Policy  Contact